Date,TemperatureHighF,TemperatureAvgF,TemperatureLowF,DewpointHighF,DewpointAvgF,DewpointLowF,HumidityHigh,HumidityAvg,HumidityLow,PressureMaxIn,PressureMinIn,WindSpeedMaxMPH,WindSpeedAvgMPH,GustSpeedMaxMPH,PrecipitationSumIn
2013-9-1,94,83,74,58,49,36,55,32,18,30.05,29.91,13,4,20,0.00
2013-9-2,92,79,70,71,49,24,92,43,10,30.16,30.04,8,3,14,0.00
2013-9-3,92,75,59,59,44,23,86,42,10,30.19,30.09,7,2,14,0.00
2013-9-4,96,79,63,56,48,28,66,39,10,30.22,30.12,4,1,11,0.00
2013-9-5,98,82,70,55,47,27,57,34,10,30.25,30.16,6,2,11,0.00
2013-9-6,101,84,70,53,45,29,52,30,10,30.89,30.08,5,2,12,0.00
2013-9-7,102,85,72,55,45,29,52,30,10,30.13,30.02,6,2,11,0.00
2013-9-8,97,84,72,55,44,26,53,28,10,30.09,29.98,7,3,14,0.00
2013-9-9,94,82,71,54,40,22,53,27,10,30.10,30.01,10,4,21,0.00
2013-9-10,93,81,69,56,46,27,61,32,10,30.20,30.06,8,3,19,0.00
2013-9-11,95,82,69,55,43,26,50,29,10,30.25,30.12,7,2,14,0.00
2013-9-12,97,81,68,69,51,29,86,44,10,30.21,30.09,11,2,21,0.06
2013-9-13,84,75,69,68,59,41,87,60,31,30.89,30.06,12,4,20,0.01
2013-9-14,88,75,63,55,44,30,58,35,14,30.12,30.03,6,3,15,0.00
2013-9-15,73,73,73,50,50,50,45,45,45,30.06,30.06,4,4,8,0.00
2013-9-16,91,78,72,64,51,30,74,43,14,30.20,30.03,12,3,19,0.00
2013-9-17,94,76,70,71,60,37,99,64,16,30.21,30.06,8,2,17,0.05
2013-9-18,95,81,72,61,48,24,67,38,10,30.10,29.97,11,5,24,0.00
2013-9-19,90,77,66,69,58,46,84,55,23,30.08,29.98,14,3,23,0.22
2013-9-20,72,67,57,66,56,39,92,69,33,30.12,30.01,11,4,19,0.01
2013-9-21,84,66,50,58,38,14,94,48,10,30.16,30.02,6,1,14,0.00
2013-9-22,85,68,53,48,32,14,71,34,10,30.06,29.92,6,2,12,0.00
2013-9-23,85,70,55,45,32,17,66,30,10,29.96,29.85,10,5,22,0.00
2013-9-24,88,72,57,43,30,11,58,26,10,30.09,29.96,10,3,23,0.00
2013-9-25,94,72,51,53,32,17,79,31,10,30.03,29.87,6,2,13,0.00
2013-9-26,94,79,66,39,30,22,34,18,10,31.41,29.87,12,6,24,0.00
2013-9-27,89,78,64,59,46,34,61,35,15,30.02,29.91,12,6,24,0.00
2013-9-28,79,67,51,66,49,30,96,56,22,30.22,29.92,15,7,25,1.26
2013-9-29,83,62,45,52,34,13,92,48,10,30.22,30.04,4,1,10,0.00
2013-9-30,86,68,51,43,33,17,73,34,10,30.05,29.90,6,3,14,0.00